createdAt,value
2023-04-14T00:02:38.818Z,4.97
2023-04-14T00:05:41.342Z,5.90
2023-04-14T00:08:43.512Z,4.07
2023-04-14T00:11:46.301Z,4.18
2023-04-14T00:14:49.826Z,4.12
2023-04-14T00:17:53.089Z,4.07
2023-04-14T00:20:55.521Z,4.12
2023-04-14T00:23:57.973Z,4.07
2023-04-14T00:27:01.225Z,4.20
2023-04-14T00:30:04.145Z,5.30
2023-04-14T00:33:08.408Z,3.95
2023-04-14T00:36:10.852Z,4.43
2023-04-14T00:39:13.080Z,4.95
2023-04-14T00:42:15.796Z,4.43
2023-04-14T00:45:18.135Z,4.37
2023-04-14T00:48:21.471Z,4.62
2023-04-14T00:51:24.471Z,5.20
2023-04-14T00:54:28.129Z,5.25
2023-04-14T00:57:30.989Z,4.30
2023-04-14T01:00:35.437Z,4.35
2023-04-14T01:03:38.509Z,3.72
2023-04-14T01:06:41.298Z,4.70
2023-04-14T01:09:43.612Z,4.40
2023-04-14T01:13:07.379Z,4.40
2023-04-14T01:16:17.024Z,4.18
2023-04-14T01:19:44.657Z,4.10
2023-04-14T01:22:58.474Z,4.50
2023-04-14T01:29:41.108Z,4.10
2023-04-14T01:32:47.296Z,4.40
2023-04-14T01:35:53.010Z,4.55
2023-04-14T01:38:57.869Z,4.12
2023-04-14T01:42:02.029Z,4.97
2023-04-14T01:45:15.731Z,4.47
2023-04-14T01:48:19.398Z,4.20
2023-04-14T01:51:24.107Z,4.95
2023-04-14T01:54:27.544Z,4.50
2023-04-14T02:00:35.587Z,3.78
2023-04-14T02:03:39.470Z,4.12
2023-04-14T02:09:47.185Z,4.30
2023-04-14T02:12:52.758Z,4.32
2023-04-14T02:15:57.735Z,3.97
2023-04-14T02:19:01.955Z,4.07
2023-04-14T02:22:04.956Z,4.18
2023-04-14T02:25:07.970Z,5.85
2023-04-14T02:28:19.608Z,3.80
2023-04-14T02:31:25.521Z,4.18
2023-04-14T02:34:33.155Z,4.18
2023-04-14T02:37:41.973Z,3.92
2023-04-14T02:40:45.646Z,4.12
2023-04-14T02:43:54.677Z,4.30
2023-04-14T02:47:06.888Z,3.70
2023-04-14T02:50:14.022Z,4.70
2023-04-14T02:53:21.158Z,4.95
2023-04-14T02:56:24.807Z,5.43
2023-04-14T02:59:29.941Z,4.40
2023-04-14T03:02:35.144Z,3.92
2023-04-14T03:05:43.831Z,3.70
2023-04-14T03:08:47.885Z,4.60
2023-04-14T03:11:53.925Z,4.53
2023-04-14T03:14:58.170Z,4.35
2023-04-14T03:18:01.539Z,4.53
2023-04-14T03:21:05.121Z,5.47
2023-04-14T03:27:22.933Z,4.32
2023-04-14T03:30:27.574Z,4.15
2023-04-14T03:33:32.392Z,4.60
2023-04-14T03:36:37.172Z,4.50
2023-04-14T03:39:41.270Z,5.20
2023-04-14T03:42:46.283Z,4.87
2023-04-14T03:45:50.169Z,4.72
2023-04-14T03:48:55.710Z,4.47
2023-04-14T03:52:05.220Z,3.97
2023-04-14T03:55:12.414Z,5.85
2023-04-14T03:58:17.224Z,5.85
2023-04-14T04:01:23.884Z,4.53
2023-04-14T04:04:27.383Z,3.92
2023-04-14T04:07:32.098Z,4.87
2023-04-14T04:10:35.913Z,5.05
2023-04-14T04:16:43.536Z,4.80
2023-04-14T04:19:47.957Z,4.70
2023-04-14T04:22:54.699Z,5.12
2023-04-14T04:25:57.447Z,5.28
2023-04-14T04:29:04.720Z,4.87
2023-04-14T04:35:10.518Z,5.50
2023-04-14T04:38:13.118Z,5.25
2023-04-14T04:41:28.000Z,5.97
2023-04-14T04:44:32.662Z,5.35
2023-04-14T04:47:35.906Z,5.40
2023-04-14T04:50:38.227Z,6.37
2023-04-14T04:53:40.900Z,5.25
2023-04-14T04:56:43.108Z,5.37
2023-04-14T04:59:46.478Z,6.05
2023-04-14T05:02:49.125Z,5.03
2023-04-14T05:05:51.827Z,5.68
2023-04-14T05:08:55.271Z,5.75
2023-04-14T05:15:02.930Z,6.03
2023-04-14T05:18:05.703Z,5.75
2023-04-14T05:21:15.558Z,6.30
2023-04-14T05:24:18.093Z,6.20
2023-04-14T05:27:22.004Z,6.07
2023-04-14T05:30:24.686Z,6.53
2023-04-14T05:33:27.312Z,6.00
2023-04-14T05:36:31.205Z,7.50
2023-04-14T05:39:33.867Z,5.47
2023-04-14T05:49:32.404Z,5.05
2023-04-14T05:52:44.866Z,5.43
2023-04-14T05:55:54.860Z,5.62
2023-04-14T05:59:07.262Z,5.68
2023-04-14T06:02:15.571Z,6.43
2023-04-14T06:05:19.386Z,6.20
2023-04-14T06:08:21.729Z,4.95
2023-04-14T06:11:24.252Z,6.12
2023-04-14T06:14:26.427Z,6.22
2023-04-14T06:17:28.873Z,5.65
2023-04-14T06:20:32.141Z,6.30
2023-04-14T06:23:35.921Z,6.03
2023-04-14T06:26:38.094Z,6.40
2023-04-14T06:29:40.900Z,6.68
2023-04-14T06:32:43.351Z,6.00
2023-04-14T06:35:45.991Z,5.07
2023-04-14T06:38:48.126Z,6.03
2023-04-14T06:41:50.825Z,6.32
2023-04-14T06:44:53.264Z,5.62
2023-04-14T06:47:56.189Z,6.68
2023-04-14T06:50:58.588Z,5.43
2023-04-14T06:54:01.292Z,5.43
2023-04-14T06:57:03.811Z,6.07
2023-04-14T07:00:07.372Z,5.68
2023-04-14T07:03:09.780Z,4.97
2023-04-14T07:06:17.058Z,5.90
2023-04-14T07:09:19.634Z,5.82
2023-04-14T07:12:22.298Z,7.37
2023-04-14T07:15:24.509Z,6.47
2023-04-14T07:18:27.124Z,6.37
2023-04-14T07:21:29.515Z,5.93
2023-04-14T07:24:32.117Z,5.80
2023-04-14T07:27:34.275Z,5.72
2023-04-14T07:30:39.389Z,5.85
2023-04-14T07:33:41.785Z,6.90
2023-04-14T07:36:44.992Z,5.97
2023-04-14T07:39:47.141Z,6.03
2023-04-14T07:42:49.618Z,5.15
2023-04-14T07:45:52.463Z,6.57
2023-04-14T07:48:54.990Z,6.95
2023-04-14T07:51:57.329Z,6.85
2023-04-14T07:55:00.129Z,5.55
2023-04-14T07:58:02.483Z,5.82
2023-04-14T08:01:06.370Z,6.25
2023-04-14T08:04:09.087Z,6.40
2023-04-14T08:07:11.538Z,7.00
2023-04-14T08:10:14.118Z,5.93
2023-04-14T08:13:16.237Z,6.18
2023-04-14T08:16:19.553Z,6.12
2023-04-14T08:24:13.005Z,7.03
2023-04-14T08:27:15.881Z,6.93
2023-04-14T08:30:18.071Z,6.70
2023-04-14T08:33:20.747Z,6.28
2023-04-14T08:36:23.725Z,6.22
2023-04-14T08:39:27.035Z,5.55
2023-04-14T08:42:31.083Z,5.30
2023-04-14T08:45:34.291Z,7.15
2023-04-14T08:48:38.830Z,6.65
2023-04-14T08:51:45.433Z,5.97
2023-04-14T08:54:51.176Z,6.07
2023-04-14T08:57:54.652Z,7.15
2023-04-14T09:00:57.212Z,6.60
2023-04-14T09:04:00.970Z,6.47
2023-04-14T09:07:04.639Z,7.57
2023-04-14T09:10:08.460Z,5.72
2023-04-14T09:13:12.664Z,6.53
2023-04-14T09:16:17.525Z,7.20
2023-04-14T09:19:24.710Z,8.20
2023-04-14T09:22:27.702Z,5.53
2023-04-14T09:25:30.456Z,7.20
2023-04-14T09:28:33.352Z,6.22
2023-04-14T09:31:36.715Z,7.25
2023-04-14T09:34:50.663Z,7.37
2023-04-14T09:37:52.939Z,6.57
2023-04-14T09:40:57.020Z,6.57
2023-04-14T09:44:08.262Z,7.18
2023-04-14T09:47:11.099Z,8.02
2023-04-14T09:50:14.868Z,7.40
2023-04-14T09:53:25.282Z,6.53
2023-04-14T09:56:28.138Z,8.13
2023-04-14T09:59:36.800Z,7.53
2023-04-14T10:02:58.009Z,7.82
2023-04-14T10:06:01.601Z,6.72
2023-04-14T10:09:04.083Z,7.28
2023-04-14T10:12:09.952Z,8.85
2023-04-14T10:15:14.991Z,7.35
2023-04-14T10:18:17.632Z,8.40
2023-04-14T10:21:23.085Z,8.48
2023-04-14T10:24:26.079Z,8.48
2023-04-14T10:27:30.729Z,6.75
2023-04-14T10:30:33.755Z,7.35
2023-04-14T10:33:39.162Z,9.82
2023-04-14T10:36:42.880Z,7.82
2023-04-14T10:39:55.676Z,7.00
2023-04-14T10:42:58.311Z,7.70
2023-04-14T10:46:00.906Z,8.88
2023-04-14T10:49:03.518Z,8.50
2023-04-14T10:52:27.423Z,8.35
2023-04-14T10:55:51.731Z,9.98
2023-04-14T10:58:56.427Z,8.30
2023-04-14T11:01:59.057Z,10.02
2023-04-14T11:05:05.751Z,8.40
2023-04-14T11:08:16.294Z,9.40
2023-04-14T11:11:18.616Z,9.88
2023-04-14T11:14:30.652Z,7.85
2023-04-14T11:17:38.540Z,9.38
2023-04-14T11:20:44.202Z,8.68
2023-04-14T11:23:47.394Z,8.95
2023-04-14T11:26:56.966Z,8.98
2023-04-14T11:30:00.570Z,9.90
2023-04-14T11:33:03.538Z,9.93
2023-04-14T11:36:09.416Z,9.53
2023-04-14T11:39:15.636Z,9.93
2023-04-14T11:42:19.380Z,9.52
2023-04-14T11:45:22.044Z,8.73
2023-04-14T11:48:24.443Z,7.60
2023-04-14T11:51:32.401Z,8.73
2023-04-14T11:54:38.950Z,7.03
2023-04-14T11:57:45.834Z,7.22
2023-04-14T12:00:49.679Z,7.68
2023-04-14T12:03:52.584Z,7.95
2023-04-14T12:10:05.482Z,7.95
2023-04-14T12:22:27.302Z,4.87
2023-04-14T12:38:14.958Z,4.93
2023-04-14T12:41:24.318Z,5.70
2023-04-14T12:47:34.235Z,6.50
2023-04-14T12:50:36.913Z,6.30
2023-04-14T13:08:58.484Z,3.92
2023-04-14T13:12:01.177Z,4.68
2023-04-14T13:15:04.185Z,5.50
2023-04-14T13:18:06.744Z,4.55
2023-04-14T13:21:09.728Z,4.45
2023-04-14T13:24:12.164Z,3.60
2023-04-14T13:27:14.409Z,3.45
2023-04-14T13:30:17.329Z,4.72
2023-04-14T13:33:20.138Z,4.65
2023-04-14T13:36:22.606Z,4.47
2023-04-14T13:39:24.880Z,5.12
2023-04-14T13:42:27.342Z,4.55
2023-04-14T13:45:29.894Z,4.03
2023-04-14T13:48:33.047Z,4.20
2023-04-14T13:51:35.258Z,4.63
2023-04-14T13:54:37.738Z,4.45
2023-04-14T13:57:40.171Z,5.25
2023-04-14T14:00:42.707Z,4.20
2023-04-14T14:03:45.963Z,5.10
2023-04-14T14:06:48.459Z,4.72
2023-04-14T14:09:51.030Z,4.57
2023-04-14T14:12:53.934Z,4.93
2023-04-14T14:15:56.571Z,3.35
2023-04-14T14:19:00.046Z,4.12
2023-04-14T14:22:02.694Z,3.00
2023-04-14T14:25:18.550Z,3.08
2023-04-14T14:28:22.620Z,2.95
2023-04-14T14:31:24.972Z,3.30
2023-04-14T14:34:27.823Z,3.50
2023-04-14T14:37:30.339Z,2.62
2023-04-14T14:40:32.784Z,3.17
2023-04-14T14:43:35.115Z,3.53
2023-04-14T14:46:37.668Z,3.15
2023-04-14T14:49:48.867Z,3.92
2023-04-14T14:52:59.561Z,3.10
2023-04-14T14:56:01.930Z,3.05
2023-04-14T14:59:04.563Z,2.80
2023-04-14T15:02:07.059Z,2.90
2023-04-14T15:05:09.681Z,3.27
2023-04-14T15:08:11.858Z,4.47
2023-04-14T15:11:14.683Z,5.07
2023-04-14T15:14:16.899Z,4.43
2023-04-14T15:17:19.610Z,4.35
2023-04-14T15:20:22.264Z,3.35
2023-04-14T15:23:24.822Z,3.42
2023-04-14T15:26:27.321Z,3.35
2023-04-14T15:29:30.531Z,2.78
2023-04-14T15:32:32.883Z,2.70
2023-04-14T15:35:40.202Z,3.00
2023-04-14T15:38:42.579Z,2.78
2023-04-14T15:41:47.524Z,4.03
2023-04-14T15:44:51.065Z,3.92
2023-04-14T15:47:53.557Z,3.53
2023-04-14T15:50:55.901Z,3.28
2023-04-14T15:53:58.562Z,3.25
2023-04-14T15:57:02.256Z,3.55
2023-04-14T16:00:07.344Z,2.70
2023-04-14T16:03:14.965Z,3.00
2023-04-14T16:06:17.695Z,2.55
2023-04-14T16:09:19.942Z,3.08
2023-04-14T16:12:23.499Z,2.67
2023-04-14T16:15:27.248Z,2.62
2023-04-14T16:18:29.700Z,3.33
2023-04-14T16:21:32.067Z,2.95
2023-04-14T16:24:34.813Z,2.87
2023-04-14T16:27:37.417Z,3.05
2023-04-14T16:30:39.903Z,2.37
2023-04-14T16:33:42.093Z,3.33
2023-04-14T16:36:46.441Z,3.30
2023-04-14T16:39:48.670Z,3.58
2023-04-14T16:42:51.374Z,3.87
2023-04-14T16:46:00.061Z,3.60
2023-04-14T16:49:02.841Z,3.53
2023-04-14T16:52:05.540Z,3.57
2023-04-14T16:55:08.658Z,2.93
2023-04-14T16:58:11.010Z,2.50
2023-04-14T17:01:13.457Z,2.55
2023-04-14T17:04:16.066Z,2.10
2023-04-14T17:07:18.732Z,2.80
2023-04-14T17:10:20.959Z,2.72
2023-04-14T17:13:23.860Z,3.93
2023-04-14T17:16:26.048Z,3.40
2023-04-14T17:19:28.562Z,3.67
2023-04-14T17:22:30.701Z,3.58
2023-04-14T17:25:34.774Z,3.17
2023-04-14T17:28:38.634Z,3.83
2023-04-14T17:31:42.244Z,3.45
2023-04-14T17:34:47.383Z,5.00
2023-04-14T17:37:49.878Z,4.10
2023-04-14T17:40:53.406Z,3.60
2023-04-14T17:47:02.855Z,3.03
2023-04-14T17:50:06.291Z,3.45
2023-04-14T17:53:08.551Z,3.80
2023-04-14T17:56:11.666Z,3.42
2023-04-14T17:59:13.906Z,2.47
2023-04-14T18:02:16.779Z,2.30
2023-04-14T18:05:19.359Z,1.58
2023-04-14T18:08:21.593Z,1.92
2023-04-14T18:11:24.437Z,1.60
2023-04-14T18:14:27.372Z,1.85
2023-04-14T18:17:30.039Z,1.85
2023-04-14T18:20:32.253Z,1.90
2023-04-14T18:23:34.804Z,1.20
2023-04-14T18:26:37.066Z,1.40
2023-04-14T18:29:39.789Z,1.73
2023-04-14T18:32:42.503Z,2.00
2023-04-14T18:35:49.656Z,2.22
2023-04-14T18:38:51.847Z,1.70
2023-04-14T18:41:54.315Z,2.08
2023-04-14T18:44:56.833Z,2.30
2023-04-14T18:47:59.836Z,2.20
2023-04-14T18:51:06.550Z,1.92
2023-04-14T18:54:09.065Z,2.30
2023-04-14T18:57:11.611Z,2.62
2023-04-14T19:00:14.283Z,3.10
2023-04-14T19:03:16.953Z,2.75
2023-04-14T19:06:19.793Z,2.85
2023-04-14T19:09:23.182Z,2.87
2023-04-14T19:15:31.371Z,3.28
2023-04-14T19:18:34.304Z,3.37
2023-04-14T19:21:36.802Z,2.83
2023-04-14T19:24:39.699Z,2.53
2023-04-14T19:27:43.337Z,2.95
2023-04-14T19:30:46.351Z,2.72
2023-04-14T19:33:49.081Z,3.05
2023-04-14T19:36:52.012Z,2.55
2023-04-14T19:39:54.667Z,2.83
2023-04-14T19:42:57.601Z,2.80
2023-04-14T19:46:04.517Z,3.20
2023-04-14T19:49:08.023Z,3.42
2023-04-14T19:52:10.244Z,2.83
2023-04-14T19:55:13.556Z,3.33
2023-04-14T19:58:15.867Z,2.70
2023-04-14T20:01:18.458Z,3.75
2023-04-14T20:04:21.441Z,2.87
2023-04-14T20:07:23.962Z,3.58
2023-04-14T20:10:26.568Z,3.17
2023-04-14T20:13:34.686Z,4.18
2023-04-14T20:16:38.514Z,3.28
2023-04-14T20:19:40.711Z,4.35
2023-04-14T20:22:43.295Z,3.72
2023-04-14T20:25:45.847Z,3.12
2023-04-14T20:28:48.561Z,3.63
2023-04-14T20:31:51.472Z,3.20
2023-04-14T20:34:54.063Z,3.37
2023-04-14T20:37:57.348Z,3.30
2023-04-14T20:41:00.385Z,3.00
2023-04-14T20:44:04.474Z,3.70
2023-04-14T20:47:08.275Z,3.37
2023-04-14T20:50:10.734Z,3.70
2023-04-14T20:53:13.262Z,3.93
2023-04-14T20:56:15.798Z,4.10
2023-04-14T20:59:18.357Z,3.62
2023-04-14T21:02:20.933Z,3.37
2023-04-14T21:05:23.784Z,3.40
2023-04-14T21:08:27.312Z,4.03
2023-04-14T21:11:29.861Z,4.32
2023-04-14T21:15:42.453Z,3.90
2023-04-14T21:17:54.668Z,3.80
2023-04-14T21:20:56.924Z,3.42
2023-04-14T21:23:59.411Z,4.50
2023-04-14T21:27:02.677Z,3.72
2023-04-14T21:33:08.768Z,3.72
2023-04-14T21:39:14.061Z,3.15
2023-04-14T21:42:16.712Z,3.65
2023-04-14T21:45:18.958Z,4.07
2023-04-14T21:48:21.729Z,4.05
2023-04-14T21:51:23.969Z,6.18
2023-04-14T21:54:26.423Z,5.75
2023-04-14T21:57:42.543Z,6.20
2023-04-14T22:00:51.149Z,6.70
2023-04-14T22:03:56.028Z,6.85
2023-04-14T22:06:58.442Z,6.60
2023-04-14T22:10:02.244Z,5.80
2023-04-14T22:13:04.408Z,5.72
2023-04-14T22:16:07.537Z,5.30
2023-04-14T22:19:10.368Z,5.57
2023-04-14T22:22:12.805Z,7.30
2023-04-14T22:25:15.257Z,6.32
2023-04-14T22:28:17.718Z,5.90
2023-04-14T22:31:19.892Z,7.10
2023-04-14T22:34:22.462Z,6.50
2023-04-14T22:37:24.756Z,5.22
2023-04-14T22:40:27.443Z,6.00
2023-04-14T22:43:29.953Z,5.95
2023-04-14T22:46:33.549Z,5.77
2023-04-14T22:49:35.728Z,6.03
2023-04-14T22:52:38.248Z,5.97
2023-04-14T22:55:40.511Z,5.95
2023-04-14T22:58:43.567Z,6.97
2023-04-14T23:01:45.817Z,6.90
2023-04-14T23:04:48.404Z,6.30
2023-04-14T23:07:51.093Z,6.28
2023-04-14T23:10:53.681Z,5.22
2023-04-14T23:13:56.644Z,5.43
2023-04-14T23:17:01.881Z,5.40
2023-04-14T23:20:04.465Z,5.25
2023-04-14T23:23:12.099Z,6.00
2023-04-14T23:26:14.370Z,5.18
2023-04-14T23:29:16.860Z,4.95
2023-04-14T23:32:19.258Z,5.05
2023-04-14T23:35:21.928Z,5.32
2023-04-14T23:38:24.273Z,5.07
2023-04-14T23:41:28.096Z,4.85
2023-04-14T23:44:30.334Z,4.68
2023-04-14T23:47:33.100Z,4.62
2023-04-14T23:51:00.725Z,4.78
2023-04-14T23:54:01.649Z,5.60
2023-04-14T23:57:04.196Z,4.50
